Time;durP1;ratioP1;P1;durP2;ratioP2;P2;SDS_P1;SDS_P2;PMS_P1;PMS_P2;Temp;Humidity;BMP_temperature;BMP_pressure;BME280_temperature;BME280_humidity;BME280_pressure;Samples;Min_cycle;Max_cycle;Signal;HPM_P1;HPM_P2
2023/03/04 00:01:37;;;;;;;81.63;30.20;;;-0.60;99.90;;;;;;4929516;29;20084;-67
2023/03/04 00:04:02;;;;;;;91.43;32.10;;;-0.50;99.90;;;;;;4912317;29;20047;-68
2023/03/04 00:06:28;;;;;;;86.00;30.33;;;-0.60;99.90;;;;;;4942439;29;20045;-66
2023/03/04 00:08:54;;;;;;;95.55;31.60;;;-0.60;99.90;;;;;;4950405;29;20423;-65
2023/03/04 00:11:19;;;;;;;88.55;31.48;;;-0.70;99.90;;;;;;4917379;29;20433;-66
2023/03/04 00:13:47;;;;;;;89.03;31.80;;;-0.80;99.90;;;;;;4928161;29;20052;-66
2023/03/04 00:16:13;;;;;;;93.20;30.58;;;-0.80;99.90;;;;;;4915275;29;20478;-70
2023/03/04 00:18:39;;;;;;;90.80;31.05;;;-0.80;99.90;;;;;;4911646;29;20047;-67
2023/03/04 00:21:05;;;;;;;91.68;32.22;;;-0.80;99.90;;;;;;4927910;29;20461;-66
2023/03/04 00:23:30;;;;;;;79.72;30.00;;;-0.70;99.90;;;;;;4928897;29;20036;-66
2023/03/04 00:25:56;;;;;;;89.72;30.70;;;-0.70;99.90;;;;;;4917719;29;20773;-66
2023/03/04 00:28:22;;;;;;;79.72;29.30;;;-0.60;99.90;;;;;;4927622;29;20040;-67
2023/03/04 00:30:47;;;;;;;88.90;27.85;;;-0.70;99.90;;;;;;4930175;29;20107;-67
2023/03/04 00:33:13;;;;;;;84.00;27.83;;;-0.70;99.90;;;;;;4929972;29;20040;-69
2023/03/04 00:35:39;;;;;;;82.80;28.17;;;-0.80;99.90;;;;;;4934885;29;20126;-66
2023/03/04 00:38:05;;;;;;;82.40;29.45;;;-0.80;99.90;;;;;;4938422;29;20028;-67
2023/03/04 00:40:31;;;;;;;90.03;30.13;;;-0.80;99.90;;;;;;4931757;29;20087;-66
2023/03/04 00:42:56;;;;;;;92.10;30.23;;;-0.80;99.90;;;;;;4941665;29;20701;-66
2023/03/04 00:45:22;;;;;;;78.22;27.80;;;-1.00;99.90;;;;;;4952948;29;20373;-67
2023/03/04 00:47:47;;;;;;;83.65;28.92;;;-1.00;99.90;;;;;;4943069;29;20042;-67
2023/03/04 00:50:13;;;;;;;81.20;28.02;;;-1.10;99.90;;;;;;4953917;29;20116;-66
2023/03/04 00:52:39;;;;;;;79.80;28.38;;;-1.10;99.90;;;;;;4951098;29;20507;-66
2023/03/04 00:55:05;;;;;;;89.05;28.42;;;-1.10;99.90;;;;;;4951972;29;20488;-69
2023/03/04 00:57:31;;;;;;;86.30;29.52;;;-1.00;99.90;;;;;;4935253;29;20392;-68
2023/03/04 00:59:56;;;;;;;87.60;28.15;;;-1.00;99.90;;;;;;4935387;29;20035;-68
2023/03/04 01:02:22;;;;;;;91.10;29.38;;;-1.10;99.90;;;;;;4919745;29;20027;-67
2023/03/04 01:04:48;;;;;;;77.20;27.25;;;-1.10;99.90;;;;;;4944416;29;20056;-66
2023/03/04 01:07:13;;;;;;;82.15;27.48;;;-1.00;99.90;;;;;;4915461;29;20025;-65
2023/03/04 01:09:39;;;;;;;84.32;28.45;;;-1.00;99.90;;;;;;4919086;29;20833;-67
2023/03/04 01:12:05;;;;;;;82.30;27.83;;;-1.00;99.90;;;;;;4940422;29;20103;-67
2023/03/04 01:14:30;;;;;;;90.03;27.50;;;-1.10;99.90;;;;;;4934426;29;20043;-67
2023/03/04 01:16:56;;;;;;;83.13;28.45;;;-1.10;99.90;;;;;;4928089;29;20048;-66
2023/03/04 01:19:22;;;;;;;86.47;27.45;;;-1.20;99.90;;;;;;4933625;29;20035;-67
2023/03/04 01:21:47;;;;;;;81.55;26.90;;;-1.20;99.90;;;;;;4951289;29;20035;-66
2023/03/04 01:24:13;;;;;;;81.10;29.55;;;-1.20;99.90;;;;;;4951774;29;20031;-65
2023/03/04 01:26:38;;;;;;;77.15;27.88;;;-1.20;99.90;;;;;;4926508;29;20646;-66
2023/03/04 01:29:04;;;;;;;94.90;30.15;;;-1.20;99.90;;;;;;4933996;29;20071;-69
2023/03/04 01:31:30;;;;;;;87.93;28.73;;;-1.30;99.90;;;;;;4931326;29;20085;-67
2023/03/04 01:33:55;;;;;;;79.47;28.08;;;-1.40;99.90;;;;;;4935087;29;20115;-68
2023/03/04 01:36:21;;;;;;;81.05;27.58;;;-1.40;99.90;;;;;;4936345;29;20485;-71
2023/03/04 01:38:46;;;;;;;92.25;29.38;;;-1.40;99.90;;;;;;4933741;29;20451;-68
2023/03/04 01:41:13;;;;;;;81.65;27.75;;;-1.50;99.90;;;;;;4933708;29;20366;-69
2023/03/04 01:43:39;;;;;;;85.50;28.48;;;-1.40;99.90;;;;;;4945273;29;20066;-66
2023/03/04 01:46:05;;;;;;;92.68;28.73;;;-1.40;99.90;;;;;;4939686;29;20032;-66
2023/03/04 01:48:35;;;;;;;84.35;28.48;;;-1.50;99.90;;;;;;4920081;29;20492;-67
2023/03/04 01:51:03;;;;;;;81.68;28.02;;;-1.60;99.90;;;;;;4940239;28;20027;-65
2023/03/04 01:53:30;;;;;;;81.78;28.40;;;-1.60;99.90;;;;;;4934326;29;20107;-65
2023/03/04 01:55:59;;;;;;;89.38;28.02;;;-1.70;99.90;;;;;;4925856;29;20039;-66
2023/03/04 01:58:29;;;;;;;80.30;27.05;;;-1.70;99.90;;;;;;4927805;29;20107;-65
2023/03/04 02:00:55;;;;;;;92.85;29.15;;;-1.70;99.90;;;;;;4920411;29;20135;-66
2023/03/04 02:03:21;;;;;;;87.60;29.75;;;-1.60;99.90;;;;;;4949181;29;20027;-72
2023/03/04 02:05:52;;;;;;;92.95;30.13;;;-1.70;99.90;;;;;;4948601;29;20035;-67
2023/03/04 02:08:19;;;;;;;86.53;29.42;;;-1.70;99.90;;;;;;4932092;29;20028;-67
2023/03/04 02:10:46;;;;;;;85.97;28.60;;;-1.70;99.90;;;;;;4934543;29;20539;-66
2023/03/04 02:13:12;;;;;;;89.90;28.23;;;-1.70;99.90;;;;;;4922089;29;20039;-66
2023/03/04 02:15:38;;;;;;;87.80;28.33;;;-1.70;99.90;;;;;;4924642;29;20052;-66
2023/03/04 02:18:16;;;;;;;82.85;28.58;;;-1.70;99.90;;;;;;4915836;29;20070;-65
2023/03/04 02:21:08;;;;;;;86.22;28.60;;;-1.70;99.90;;;;;;4951657;29;20133;-66
2023/03/04 02:23:54;;;;;;;80.05;26.38;;;-1.70;99.90;;;;;;4927302;29;20106;-65
2023/03/04 02:26:22;;;;;;;90.53;27.23;;;-1.70;99.90;;;;;;4932646;29;20062;-71
2023/03/04 02:28:50;;;;;;;81.10;25.80;;;-1.70;99.90;;;;;;4936770;29;20033;-66
2023/03/04 02:31:52;;;;;;;77.93;27.25;;;-1.80;99.90;;;;;;4947815;29;20063;-65
2023/03/04 02:34:20;;;;;;;72.72;25.67;;;-1.90;99.90;;;;;;4836316;29;20110;-66
2023/03/04 02:36:47;;;;;;;78.88;26.95;;;-1.90;99.90;;;;;;4914362;29;20469;-69
2023/03/04 02:39:19;;;;;;;85.05;26.58;;;-1.80;99.90;;;;;;4932613;29;20477;-66
2023/03/04 02:41:45;;;;;;;80.60;26.83;;;-1.90;99.90;;;;;;4931407;29;20939;-68
2023/03/04 02:44:18;;;;;;;79.72;26.40;;;-1.90;99.90;;;;;;4940409;29;20057;-66
2023/03/04 02:46:44;;;;;;;88.88;27.48;;;-1.90;99.90;;;;;;4951004;29;20042;-65
2023/03/04 02:49:10;;;;;;;84.38;27.13;;;-1.90;99.90;;;;;;4941365;29;20039;-65
2023/03/04 02:51:36;;;;;;;81.47;27.08;;;-1.90;99.90;;;;;;4948097;29;20043;-69
2023/03/04 02:54:01;;;;;;;82.35;27.95;;;-1.90;99.90;;;;;;4939548;29;20039;-68
2023/03/04 02:56:27;;;;;;;78.85;25.73;;;-2.00;99.90;;;;;;4943272;29;20597;-68
2023/03/04 02:58:52;;;;;;;80.35;26.95;;;-2.00;99.90;;;;;;4937651;29;20063;-66
2023/03/04 03:01:18;;;;;;;76.93;24.88;;;-2.00;99.90;;;;;;4924291;29;20044;-67
2023/03/04 03:03:44;;;;;;;75.95;25.73;;;-2.00;99.90;;;;;;4916385;29;20264;-67
2023/03/04 03:06:09;;;;;;;74.25;25.20;;;-2.10;99.90;;;;;;4932273;29;20027;-70
2023/03/04 03:08:35;;;;;;;84.30;27.27;;;-2.10;99.90;;;;;;4926410;29;20091;-67
2023/03/04 03:11:01;;;;;;;76.05;24.05;;;-2.10;99.90;;;;;;4917217;29;20087;-67
2023/03/04 03:13:27;;;;;;;82.97;26.05;;;-2.10;99.90;;;;;;4931778;29;20038;-72
2023/03/04 03:15:53;;;;;;;74.25;26.05;;;-2.10;99.90;;;;;;4920656;29;20063;-65
2023/03/04 03:18:19;;;;;;;75.25;24.65;;;-2.10;99.90;;;;;;4924288;29;20130;-68
2023/03/04 03:20:45;;;;;;;74.05;25.55;;;-2.10;99.90;;;;;;4949055;29;20078;-67
2023/03/04 03:23:11;;;;;;;72.50;25.20;;;-2.20;99.90;;;;;;4948488;29;20027;-68
2023/03/04 03:25:36;;;;;;;81.40;26.88;;;-2.20;99.90;;;;;;4929554;29;20126;-68
2023/03/04 03:28:02;;;;;;;71.80;24.23;;;-2.30;99.90;;;;;;4937304;29;20082;-67
2023/03/04 03:30:27;;;;;;;74.35;24.85;;;-2.20;99.90;;;;;;4947554;29;20024;-72
2023/03/04 03:32:53;;;;;;;71.68;24.95;;;-2.20;99.90;;;;;;4926448;29;20032;-66
2023/03/04 03:35:19;;;;;;;77.88;24.23;;;-2.40;99.90;;;;;;4912837;29;20028;-67
2023/03/04 03:37:44;;;;;;;75.95;25.05;;;-2.50;99.90;;;;;;4916422;29;20650;-66
2023/03/04 03:40:11;;;;;;;77.32;24.52;;;-2.60;99.90;;;;;;4933182;29;20143;-67
2023/03/04 03:42:36;;;;;;;77.38;25.83;;;-2.60;99.90;;;;;;4932544;29;20040;-67
2023/03/04 03:45:03;;;;;;;68.15;22.85;;;-2.50;99.90;;;;;;4950703;29;20078;-67
2023/03/04 03:47:28;;;;;;;77.03;24.25;;;-2.50;99.90;;;;;;4948263;29;20142;-72
2023/03/04 03:49:54;;;;;;;76.57;24.75;;;-2.50;99.90;;;;;;4933629;29;20520;-66
2023/03/04 03:52:19;;;;;;;74.88;26.15;;;-2.40;99.90;;;;;;4931057;29;20031;-67
2023/03/04 03:54:45;;;;;;;73.63;24.73;;;-2.50;99.90;;;;;;4926984;29;20038;-66
2023/03/04 03:57:11;;;;;;;74.07;24.33;;;-2.50;99.90;;;;;;4930629;29;20429;-67
2023/03/04 03:59:36;;;;;;;74.80;23.73;;;-2.50;99.90;;;;;;4919740;29;20499;-66
2023/03/04 04:02:02;;;;;;;72.20;24.23;;;-2.60;99.90;;;;;;4919935;29;20382;-67
2023/03/04 04:04:27;;;;;;;76.50;24.08;;;-2.60;99.90;;;;;;4946421;29;20126;-72
2023/03/04 04:06:53;;;;;;;72.47;24.88;;;-2.60;99.90;;;;;;4948869;29;20039;-66
2023/03/04 04:09:19;;;;;;;78.60;23.45;;;-2.70;99.90;;;;;;4948912;29;20032;-66
2023/03/04 04:11:44;;;;;;;74.00;24.65;;;-2.70;99.90;;;;;;4934078;29;20038;-67
2023/03/04 04:14:11;;;;;;;68.68;23.67;;;-2.70;99.90;;;;;;4941677;29;20031;-66
2023/03/04 04:16:37;;;;;;;76.65;23.17;;;-2.70;99.90;;;;;;4929140;29;20051;-68
2023/03/04 04:19:03;;;;;;;76.45;24.50;;;-2.70;99.90;;;;;;4933278;29;20039;-66
2023/03/04 04:21:28;;;;;;;70.95;23.65;;;-2.80;99.90;;;;;;4930712;29;20138;-72
2023/03/04 04:23:54;;;;;;;71.65;23.98;;;-2.80;99.90;;;;;;4932460;29;20039;-68
2023/03/04 04:26:20;;;;;;;70.57;24.25;;;-2.70;99.90;;;;;;4930242;29;20483;-67
2023/03/04 04:28:45;;;;;;;73.65;23.98;;;-2.80;99.90;;;;;;4938632;29;20039;-66
2023/03/04 04:31:11;;;;;;;74.30;23.65;;;-2.80;99.90;;;;;;4921701;29;20036;-68
2023/03/04 04:33:36;;;;;;;74.07;24.63;;;-2.80;99.90;;;;;;4922360;29;20043;-68
2023/03/04 04:36:03;;;;;;;74.22;23.63;;;-2.80;99.90;;;;;;4950469;29;20063;-66
2023/03/04 04:38:29;;;;;;;65.25;22.27;;;-2.80;99.90;;;;;;4934283;29;20488;-72
2023/03/04 04:40:59;;;;;;;67.88;22.42;;;-2.80;99.90;;;;;;4916200;29;20039;-67
2023/03/04 04:43:24;;;;;;;70.13;22.95;;;-2.90;99.90;;;;;;4933989;29;20031;-70
2023/03/04 04:45:51;;;;;;;68.07;23.25;;;-2.90;99.90;;;;;;4929062;29;20040;-66
2023/03/04 04:48:16;;;;;;;68.25;21.85;;;-2.80;99.90;;;;;;4938089;29;20448;-67
2023/03/04 04:50:42;;;;;;;71.32;22.83;;;-2.90;99.90;;;;;;4922999;29;20032;-69
2023/03/04 04:53:10;;;;;;;69.25;21.48;;;-2.90;99.90;;;;;;4926691;29;20039;-68
2023/03/04 04:55:36;;;;;;;66.40;22.05;;;-3.00;99.90;;;;;;4927811;29;20063;-65
2023/03/04 04:58:06;;;;;;;78.47;24.60;;;-2.90;99.90;;;;;;4929933;29;20082;-67
2023/03/04 05:00:31;;;;;;;69.85;22.83;;;-3.00;99.90;;;;;;4928903;29;20055;-72
2023/03/04 05:02:57;;;;;;;68.68;22.92;;;-3.00;99.90;;;;;;4927966;29;20070;-66
2023/03/04 05:05:22;;;;;;;74.22;23.05;;;-3.10;99.90;;;;;;4931021;29;20384;-66
2023/03/04 05:07:48;;;;;;;73.78;23.58;;;-3.10;99.90;;;;;;4930214;29;20036;-66
2023/03/04 05:10:13;;;;;;;72.97;23.98;;;-3.10;99.90;;;;;;4921452;29;20032;-65
2023/03/04 05:12:39;;;;;;;81.50;24.92;;;-3.10;99.90;;;;;;4911254;29;20545;-67
2023/03/04 05:15:05;;;;;;;75.72;25.77;;;-3.00;99.90;;;;;;4924763;29;20054;-66
2023/03/04 05:17:31;;;;;;;73.20;24.63;;;-3.00;99.90;;;;;;4922579;29;20407;-71
2023/03/04 05:19:57;;;;;;;80.45;25.38;;;-3.00;99.90;;;;;;4913452;29;20107;-67
2023/03/04 05:22:22;;;;;;;83.88;25.60;;;-3.10;99.90;;;;;;4932016;29;20086;-66
2023/03/04 05:24:48;;;;;;;74.60;24.35;;;-3.10;99.90;;;;;;4933956;29;20039;-71
2023/03/04 05:27:14;;;;;;;83.55;25.45;;;-3.10;99.90;;;;;;4934167;29;20249;-65
2023/03/04 05:29:41;;;;;;;74.05;24.88;;;-3.20;99.90;;;;;;4940154;29;20054;-67
2023/03/04 05:32:07;;;;;;;73.75;23.98;;;-3.20;99.90;;;;;;4938738;29;20394;-66
2023/03/04 05:34:32;;;;;;;77.90;24.13;;;-3.30;99.90;;;;;;4928118;29;20047;-71
2023/03/04 05:36:58;;;;;;;74.85;24.40;;;-3.40;99.90;;;;;;4938393;29;20102;-67
2023/03/04 05:39:24;;;;;;;86.45;26.23;;;-3.30;99.90;;;;;;4934063;29;20645;-65
2023/03/04 05:41:49;;;;;;;79.03;26.00;;;-3.30;99.90;;;;;;4927974;29;20471;-67
2023/03/04 05:44:15;;;;;;;80.63;26.73;;;-3.30;99.90;;;;;;4932016;29;20090;-66
2023/03/04 05:46:40;;;;;;;82.78;26.95;;;-3.30;99.90;;;;;;4932062;29;20039;-65
2023/03/04 05:49:06;;;;;;;79.25;25.92;;;-3.30;99.90;;;;;;4941304;29;20093;-66
2023/03/04 05:51:32;;;;;;;78.97;24.95;;;-3.40;99.90;;;;;;4936050;29;20038;-70
2023/03/04 05:53:57;;;;;;;76.28;24.98;;;-3.30;99.90;;;;;;4927492;29;20028;-68
2023/03/04 05:56:23;;;;;;;74.25;24.70;;;-3.30;99.90;;;;;;4933494;29;20440;-69
2023/03/04 05:58:49;;;;;;;78.20;26.00;;;-3.30;99.90;;;;;;4931561;29;20064;-70
2023/03/04 06:01:15;;;;;;;86.55;27.77;;;-3.30;99.90;;;;;;4926480;29;20086;-70
2023/03/04 06:03:44;;;;;;;94.45;29.85;;;-3.30;99.90;;;;;;4927733;29;20481;-69
2023/03/04 06:06:09;;;;;;;89.10;30.10;;;-3.20;99.90;;;;;;4924383;29;20123;-69
2023/03/04 06:08:35;;;;;;;123.07;34.78;;;-3.20;99.90;;;;;;4912213;29;20115;-71
2023/03/04 06:11:02;;;;;;;89.40;29.70;;;-3.00;99.90;;;;;;4926631;29;20078;-69
2023/03/04 06:13:28;;;;;;;81.95;26.17;;;-3.00;99.90;;;;;;4933619;29;20093;-69
2023/03/04 06:15:56;;;;;;;85.18;26.20;;;-3.00;99.90;;;;;;4931519;29;20035;-68
2023/03/04 06:18:22;;;;;;;94.93;29.30;;;-3.20;99.90;;;;;;4932695;29;20043;-68
2023/03/04 06:20:48;;;;;;;103.93;30.90;;;-3.10;99.90;;;;;;4922415;29;20032;-69
2023/03/04 06:23:13;;;;;;;91.10;29.13;;;-3.00;99.90;;;;;;4914797;29;20083;-67
2023/03/04 06:25:39;;;;;;;103.20;28.85;;;-3.00;99.90;;;;;;4927345;29;20071;-70
2023/03/04 06:28:05;;;;;;;96.70;30.17;;;-3.10;99.90;;;;;;4930256;29;20449;-69
2023/03/04 06:30:30;;;;;;;101.85;32.13;;;-3.00;99.90;;;;;;4930779;29;20039;-69
2023/03/04 06:32:56;;;;;;;111.32;34.13;;;-3.00;99.90;;;;;;4932319;29;20692;-69
2023/03/04 06:35:21;;;;;;;111.97;32.17;;;-2.80;99.90;;;;;;4931858;29;20411;-69
2023/03/04 06:37:48;;;;;;;121.35;34.40;;;-2.80;99.90;;;;;;4922252;29;20123;-69
2023/03/04 06:40:13;;;;;;;111.32;32.30;;;-2.70;99.90;;;;;;4923870;29;20413;-68
2023/03/04 06:42:40;;;;;;;102.68;32.00;;;-2.60;99.90;;;;;;4932270;29;20028;-72
2023/03/04 06:45:06;;;;;;;102.65;31.05;;;-2.70;99.90;;;;;;4929456;29;20032;-68
2023/03/04 06:47:32;;;;;;;106.53;32.13;;;-2.70;99.90;;;;;;4932823;29;20398;-69
2023/03/04 06:49:57;;;;;;;116.40;34.75;;;-2.70;99.90;;;;;;4930529;29;20028;-69
2023/03/04 06:52:23;;;;;;;189.50;34.25;;;-2.60;99.90;;;;;;4929137;29;20087;-69
2023/03/04 06:54:49;;;;;;;188.85;35.20;;;-2.50;99.90;;;;;;4931747;29;20140;-70
2023/03/04 06:57:15;;;;;;;148.55;35.97;;;-2.50;99.90;;;;;;4932258;29;20187;-68
2023/03/04 06:59:40;;;;;;;158.10;36.50;;;-2.50;99.90;;;;;;4936487;29;20126;-69
2023/03/04 07:02:10;;;;;;;152.10;38.08;;;-2.40;99.90;;;;;;4923514;29;20136;-69
2023/03/04 07:04:36;;;;;;;146.13;38.63;;;-2.40;99.90;;;;;;4927275;29;20042;-71
2023/03/04 07:07:01;;;;;;;146.48;38.70;;;-2.30;99.90;;;;;;4932807;29;20044;-68
2023/03/04 07:09:30;;;;;;;128.02;37.35;;;-2.20;99.90;;;;;;4910077;29;20067;-68
2023/03/04 07:11:56;;;;;;;111.82;35.15;;;-2.20;99.90;;;;;;4926749;29;20027;-68
2023/03/04 07:14:21;;;;;;;110.35;33.88;;;-2.20;99.90;;;;;;4931037;29;20035;-68
2023/03/04 07:16:47;;;;;;;115.75;35.28;;;-2.20;99.90;;;;;;4908303;29;20071;-68
2023/03/04 07:19:13;;;;;;;96.60;30.98;;;-2.10;99.90;;;;;;4929101;29;20055;-68
2023/03/04 07:21:38;;;;;;;106.55;31.13;;;-2.00;99.90;;;;;;4931769;29;20393;-71
2023/03/04 07:24:04;;;;;;;109.55;30.33;;;-1.90;99.90;;;;;;4926340;29;20040;-68
2023/03/04 07:26:30;;;;;;;97.70;31.23;;;-1.80;99.90;;;;;;4931009;29;20071;-69
2023/03/04 07:28:58;;;;;;;133.15;43.38;;;-1.70;99.90;;;;;;4921509;29;20059;-69
2023/03/04 07:31:28;;;;;;;109.95;35.28;;;-1.70;99.90;;;;;;4931207;29;20024;-68
2023/03/04 07:34:00;;;;;;;101.30;29.67;;;-1.60;99.90;;;;;;4913951;29;20480;-68
2023/03/04 07:36:26;;;;;;;92.95;27.98;;;-1.50;99.90;;;;;;4921722;29;20350;-68
2023/03/04 07:38:55;;;;;;;83.45;26.83;;;-1.30;99.90;;;;;;4932561;29;20028;-68
2023/03/04 07:41:23;;;;;;;80.05;24.83;;;-1.30;99.90;;;;;;4931738;29;20035;-69
2023/03/04 07:43:49;;;;;;;72.15;22.83;;;-1.20;99.90;;;;;;4921329;29;20353;-68
2023/03/04 07:46:15;;;;;;;65.25;21.05;;;-1.10;99.90;;;;;;4911411;29;20499;-69
2023/03/04 07:48:41;;;;;;;68.35;21.17;;;-1.00;99.90;;;;;;4915029;29;20051;-71
2023/03/04 07:51:08;;;;;;;62.92;20.27;;;-0.90;99.90;;;;;;4929721;29;20044;-68
2023/03/04 07:53:34;;;;;;;56.20;19.20;;;-0.90;99.90;;;;;;4912901;29;20067;-68
2023/03/04 07:56:00;;;;;;;61.05;20.10;;;-0.90;99.90;;;;;;4922567;29;20040;-68
2023/03/04 07:58:25;;;;;;;61.65;19.77;;;-0.90;99.90;;;;;;4916873;29;20024;-69
2023/03/04 08:00:51;;;;;;;72.75;20.20;;;-0.90;99.90;;;;;;4928941;29;20047;-68
2023/03/04 08:03:17;;;;;;;65.50;20.02;;;-0.80;99.90;;;;;;4930244;29;20035;-68
2023/03/04 08:05:42;;;;;;;58.45;17.55;;;-0.70;99.90;;;;;;4928707;29;20114;-71
2023/03/04 08:08:08;;;;;;;59.58;18.40;;;-0.70;99.90;;;;;;4928698;29;20102;-68
2023/03/04 08:10:35;;;;;;;64.53;18.15;;;-0.80;99.90;;;;;;4939476;29;20637;-68
2023/03/04 08:13:00;;;;;;;56.22;18.75;;;-0.80;99.90;;;;;;4949693;29;20027;-68
2023/03/04 08:15:26;;;;;;;61.60;18.75;;;-0.90;99.90;;;;;;4915111;29;20039;-68
2023/03/04 08:17:52;;;;;;;59.70;18.30;;;-1.00;99.90;;;;;;4909965;29;20512;-68
2023/03/04 08:20:18;;;;;;;58.72;17.90;;;-1.00;99.90;;;;;;4924098;29;20121;-68
2023/03/04 08:22:43;;;;;;;51.15;16.40;;;-0.90;99.90;;;;;;4930067;29;20036;-71
2023/03/04 08:25:09;;;;;;;52.60;16.20;;;-0.80;99.90;;;;;;4928219;29;20036;-70
2023/03/04 08:27:36;;;;;;;48.80;16.40;;;-0.80;99.90;;;;;;4932473;29;20051;-69
2023/03/04 08:30:03;;;;;;;50.05;16.15;;;-0.60;99.90;;;;;;4930196;29;20116;-69
2023/03/04 08:32:29;;;;;;;44.25;15.50;;;-0.50;99.90;;;;;;4927006;29;20033;-69
2023/03/04 08:34:55;;;;;;;51.80;16.20;;;-0.50;99.90;;;;;;4911532;29;20114;-70
2023/03/04 08:37:21;;;;;;;47.22;15.75;;;-0.40;99.90;;;;;;4920293;29;20039;-69
2023/03/04 08:39:48;;;;;;;47.40;16.02;;;-0.40;99.90;;;;;;4911389;29;20047;-69
2023/03/04 08:42:13;;;;;;;51.53;15.63;;;-0.40;99.90;;;;;;4911324;29;20059;-68
2023/03/04 08:44:39;;;;;;;57.70;22.55;;;-0.30;99.90;;;;;;4920736;29;20063;-70
2023/03/04 08:47:08;;;;;;;51.85;16.20;;;-0.30;99.90;;;;;;4899498;29;20642;-68
2023/03/04 08:49:33;;;;;;;52.45;15.95;;;-0.30;99.90;;;;;;4911005;29;20067;-69
2023/03/04 08:51:59;;;;;;;49.47;15.68;;;-0.30;99.90;;;;;;4914660;29;20072;-68
2023/03/04 08:54:24;;;;;;;53.63;15.98;;;-0.30;99.90;;;;;;4929717;29;20050;-69
2023/03/04 08:56:50;;;;;;;46.90;15.52;;;-0.30;99.90;;;;;;4910703;29;20111;-68
2023/03/04 08:59:16;;;;;;;48.38;15.48;;;-0.20;99.90;;;;;;4911564;29;20036;-69
2023/03/04 09:01:41;;;;;;;46.92;15.48;;;-0.30;99.90;;;;;;4927998;29;20436;-69
2023/03/04 09:04:07;;;;;;;49.33;15.23;;;-0.30;99.90;;;;;;4933069;29;20038;-69
2023/03/04 09:06:32;;;;;;;55.35;16.85;;;-0.30;99.90;;;;;;4925348;29;20042;-69
2023/03/04 09:08:58;;;;;;;47.58;15.95;;;-0.40;99.90;;;;;;4932766;29;20032;-69
2023/03/04 09:11:24;;;;;;;50.20;15.85;;;-0.40;99.90;;;;;;4929989;29;20119;-68
2023/03/04 09:13:50;;;;;;;53.30;16.55;;;-0.40;99.90;;;;;;4925442;29;20458;-69
2023/03/04 09:16:16;;;;;;;56.28;18.45;;;-0.40;99.90;;;;;;4914991;29;20045;-68
2023/03/04 09:18:42;;;;;;;51.22;17.10;;;-0.40;99.90;;;;;;4924662;29;20110;-68
2023/03/04 09:21:08;;;;;;;58.08;17.90;;;-0.40;99.90;;;;;;4928061;29;20827;-69
2023/03/04 09:23:35;;;;;;;58.60;16.83;;;-0.40;99.90;;;;;;4934582;29;20036;-68
2023/03/04 09:26:11;;;;;;;52.97;17.42;;;-0.40;99.90;;;;;;4924239;29;20067;-69
2023/03/04 09:28:37;;;;;;;57.50;18.15;;;-0.30;99.90;;;;;;4914961;29;20520;-69
2023/03/04 09:31:10;;;;;;;55.25;17.85;;;-0.30;99.90;;;;;;4914450;29;20060;-68
2023/03/04 09:33:36;;;;;;;64.00;18.38;;;-0.30;99.90;;;;;;4915220;29;20572;-68
2023/03/04 09:36:01;;;;;;;58.63;17.90;;;-0.40;99.90;;;;;;4931433;29;20036;-69
2023/03/04 09:38:27;;;;;;;58.63;17.25;;;-0.30;99.90;;;;;;4925371;29;20116;-69
2023/03/04 09:40:53;;;;;;;56.17;18.40;;;-0.20;99.90;;;;;;4920819;29;20067;-69
2023/03/04 09:43:28;;;;;;;60.65;18.58;;;-0.20;99.90;;;;;;4916659;29;20492;-69
2023/03/04 09:45:57;;;;;;;60.60;19.42;;;-0.20;99.90;;;;;;4926186;29;20549;-68
2023/03/04 09:48:27;;;;;;;55.03;16.75;;;-0.20;99.90;;;;;;4921682;29;20110;-67
2023/03/04 09:51:04;;;;;;;56.05;17.92;;;-0.30;99.90;;;;;;4925460;29;20481;-69
2023/03/04 09:53:48;;;;;;;59.47;17.80;;;-0.40;99.90;;;;;;4932001;29;20032;-69
2023/03/04 09:56:17;;;;;;;71.07;18.42;;;-0.40;99.90;;;;;;4924993;29;20040;-69
2023/03/04 09:58:51;;;;;;;60.10;17.48;;;-0.40;99.90;;;;;;4927923;29;20032;-69
2023/03/04 10:01:36;;;;;;;63.55;18.70;;;-0.40;99.90;;;;;;4918286;29;20086;-70
2023/03/04 10:04:12;;;;;;;62.47;18.48;;;-0.40;99.90;;;;;;4917150;29;20051;-69
2023/03/04 10:06:40;;;;;;;57.33;17.75;;;-0.40;99.90;;;;;;4927013;29;20048;-69
2023/03/04 10:09:20;;;;;;;59.13;18.67;;;-0.30;99.90;;;;;;4913092;29;20422;-69
2023/03/04 10:11:58;;;;;;;65.57;18.27;;;-0.30;99.90;;;;;;4934352;29;20031;-69
2023/03/04 10:14:38;;;;;;;63.78;20.20;;;-0.30;99.90;;;;;;4914099;29;20330;-69
2023/03/04 10:17:17;;;;;;;;;;;-0.30;99.90;;;;;;4913664;29;20043;-69
2023/03/04 10:20:05;;;;;;;71.72;18.83;;;-0.20;99.90;;;;;;4913782;29;19911;-69
2023/03/04 10:22:41;;;;;;;64.40;17.88;;;-0.20;99.90;;;;;;4919652;29;20035;-69
2023/03/04 10:25:29;;;;;;;62.40;19.15;;;-0.10;99.90;;;;;;4922994;29;20086;-70
2023/03/04 10:28:04;;;;;;;73.00;18.42;;;-0.10;99.90;;;;;;4922491;29;21147;-68
2023/03/04 10:30:48;;;;;;;59.70;18.58;;;-0.10;99.90;;;;;;4919192;29;20042;-68
2023/03/04 10:33:24;;;;;;;64.75;19.35;;;0.00;99.90;;;;;;4912977;29;20135;-67
2023/03/04 10:36:12;;;;;;;69.28;20.27;;;0.00;99.90;;;;;;4918477;29;20469;-70
2023/03/04 10:38:40;;;;;;;62.47;18.67;;;0.00;99.90;;;;;;4899040;29;20052;-67
2023/03/04 10:41:19;;;;;;;63.30;19.20;;;0.00;99.90;;;;;;4920617;29;20055;-68
2023/03/04 10:44:18;;;;;;;63.85;18.05;;;0.00;99.90;;;;;;4913334;29;20104;-68
2023/03/04 10:46:46;;;;;;;61.08;18.08;;;0.00;99.90;;;;;;4923573;29;20050;-69
2023/03/04 10:49:23;;;;;;;66.13;20.50;;;0.00;99.90;;;;;;4925563;29;20031;-67
2023/03/04 10:52:17;;;;;;;65.50;19.63;;;0.10;99.90;;;;;;4920976;29;20102;-69
2023/03/04 10:54:49;;;;;;;67.68;20.83;;;0.10;99.90;;;;;;4915070;29;20039;-68
2023/03/04 10:57:23;;;;;;;61.40;19.33;;;0.00;99.90;;;;;;4926882;29;20077;-68
2023/03/04 10:59:58;;;;;;;68.05;20.30;;;0.10;99.90;;;;;;4921613;29;20110;-69
2023/03/04 11:02:32;;;;;;;67.78;20.35;;;0.20;99.90;;;;;;4923177;29;20024;-68
2023/03/04 11:05:18;;;;;;;66.22;20.80;;;0.10;99.90;;;;;;4924811;29;20418;-68
2023/03/04 11:07:49;;;;;;;74.07;21.23;;;0.20;99.90;;;;;;4912256;29;20044;-68
2023/03/04 11:10:37;;;;;;;70.28;22.20;;;0.20;99.90;;;;;;4921739;29;20725;-67
2023/03/04 11:13:25;;;;;;;79.93;21.35;;;0.20;99.90;;;;;;4920712;29;20035;-67
2023/03/04 11:15:55;;;;;;;73.97;22.58;;;0.10;99.90;;;;;;4919117;29;20040;-69
2023/03/04 11:18:49;;;;;;;77.90;22.33;;;0.10;99.90;;;;;;4924635;29;20051;-67
2023/03/04 11:21:21;;;;;;;82.05;23.48;;;0.20;99.90;;;;;;4923333;29;20036;-68
2023/03/04 11:23:56;;;;;;;73.78;22.55;;;0.20;99.90;;;;;;4921764;29;20031;-68
2023/03/04 11:26:41;;;;;;;80.05;23.52;;;0.20;99.90;;;;;;4927616;29;20788;-66
2023/03/04 11:29:17;;;;;;;71.30;21.42;;;0.30;99.90;;;;;;4929890;29;20055;-69
2023/03/04 11:31:59;;;;;;;70.72;21.77;;;0.40;99.90;;;;;;4924239;29;20058;-71
2023/03/04 11:35:00;;;;;;;74.13;23.52;;;0.50;99.90;;;;;;4923767;29;20024;-73
2023/03/04 11:37:49;;;;;;;77.10;24.67;;;0.50;99.90;;;;;;4922211;29;20502;-72
2023/03/04 11:40:29;;;;;;;79.90;24.13;;;0.50;99.90;;;;;;4920110;29;20520;-69
2023/03/04 11:43:20;;;;;;;77.32;22.40;;;0.40;99.90;;;;;;4924171;29;20555;-69
2023/03/04 11:45:55;;;;;;;73.43;20.77;;;0.50;99.90;;;;;;4922031;29;20207;-70
2023/03/04 11:49:00;;;;;;;59.63;19.25;;;0.60;99.90;;;;;;4926638;29;20039;-70
2023/03/04 11:51:32;;;;;;;63.90;20.67;;;0.80;99.90;;;;;;4931313;29;20039;-70
2023/03/04 11:54:18;;;;;;;62.58;19.13;;;1.00;99.90;;;;;;4920176;29;20036;-71
2023/03/04 11:56:51;;;;;;;55.33;17.48;;;1.10;99.90;;;;;;4922483;29;20087;-72
2023/03/04 11:59:19;;;;;;;51.10;17.00;;;1.00;99.90;;;;;;4918939;29;20071;-72
2023/03/04 12:02:08;;;;;;;53.50;17.85;;;1.00;99.90;;;;;;4921648;29;20047;-71
2023/03/04 12:04:58;;;;;;;54.78;17.60;;;1.10;99.90;;;;;;4912367;29;20055;-72
2023/03/04 12:07:42;;;;;;;50.22;16.75;;;1.10;99.90;;;;;;4921100;29;20562;-71
2023/03/04 12:10:13;;;;;;;53.67;17.75;;;1.10;99.90;;;;;;4920111;29;21249;-72
2023/03/04 12:13:20;;;;;;;56.25;18.30;;;1.20;99.90;;;;;;4922017;29;20039;-72
2023/03/04 12:15:54;;;;;;;51.92;18.15;;;1.30;99.90;;;;;;4883569;29;20137;-72
2023/03/04 12:18:37;;;;;;;55.63;18.35;;;1.40;99.90;;;;;;4879144;29;20545;-72
2023/03/04 12:21:27;;;;;;;61.83;19.80;;;1.50;99.90;;;;;;4878330;29;20056;-72
2023/03/04 12:23:58;;;;;;;49.88;17.70;;;1.60;99.90;;;;;;4880560;29;20100;-72
2023/03/04 12:26:35;;;;;;;52.92;18.55;;;1.60;99.90;;;;;;4880859;29;20816;-70
2023/03/04 12:29:59;;;;;;;52.58;17.67;;;1.70;99.90;;;;;;4879964;29;20043;-72
2023/03/04 12:32:52;;;;;;;52.63;18.63;;;1.60;99.90;;;;;;4825307;29;20045;-72
2023/03/04 12:35:32;;;;;;;57.85;17.60;;;1.50;99.90;;;;;;4823139;29;20645;-72
2023/03/04 12:38:04;;;;;;;52.67;17.08;;;1.30;99.90;;;;;;4825976;29;20064;-71
2023/03/04 12:40:34;;;;;;;56.92;17.83;;;1.20;99.90;;;;;;4827978;29;20431;-72